createdAt,value
2023-04-19T00:03:35.065Z,16.31
2023-04-19T00:06:03.881Z,16.30
2023-04-19T00:08:32.004Z,16.31
2023-04-19T00:11:01.423Z,16.30
2023-04-19T00:13:29.989Z,16.31
2023-04-19T00:15:58.339Z,16.32
2023-04-19T00:18:26.632Z,16.31
2023-04-19T00:20:54.786Z,16.30
2023-04-19T00:23:23.029Z,16.28
2023-04-19T00:25:52.822Z,16.27
2023-04-19T00:28:21.538Z,16.27
2023-04-19T00:30:49.671Z,16.25
2023-04-19T00:33:18.611Z,16.22
2023-04-19T00:35:46.906Z,16.19
2023-04-19T00:38:15.605Z,16.11
2023-04-19T00:40:44.325Z,16.05
2023-04-19T00:43:17.814Z,15.98
2023-04-19T00:45:48.204Z,15.95
2023-04-19T00:48:17.078Z,15.90
2023-04-19T00:50:46.138Z,15.88
2023-04-19T00:53:16.037Z,15.85
2023-04-19T00:55:44.864Z,15.82
2023-04-19T00:58:14.708Z,15.80
2023-04-19T01:00:44.428Z,15.75
2023-04-19T01:03:13.952Z,15.71
2023-04-19T01:05:42.803Z,15.68
2023-04-19T01:08:11.139Z,15.66
2023-04-19T01:10:39.282Z,15.62
2023-04-19T01:13:07.790Z,15.60
2023-04-19T01:15:37.459Z,15.58
2023-04-19T01:18:05.850Z,15.54
2023-04-19T01:20:34.508Z,15.54
2023-04-19T01:23:02.774Z,15.52
2023-04-19T01:25:30.870Z,15.51
2023-04-19T01:27:59.298Z,15.51
2023-04-19T01:30:27.674Z,15.47
2023-04-19T01:32:55.821Z,15.44
2023-04-19T01:35:24.177Z,15.42
2023-04-19T01:37:53.061Z,15.40
2023-04-19T01:40:24.508Z,15.38
2023-04-19T01:42:54.284Z,15.34
2023-04-19T01:45:22.666Z,15.33
2023-04-19T01:47:51.791Z,15.31
2023-04-19T01:50:20.765Z,15.29
2023-04-19T01:52:49.383Z,15.27
2023-04-19T01:55:17.764Z,15.24
2023-04-19T01:57:45.897Z,15.20
2023-04-19T02:00:14.777Z,15.18
2023-04-19T02:02:44.250Z,15.16
2023-04-19T02:05:13.884Z,15.14
2023-04-19T02:07:42.572Z,15.11
2023-04-19T02:10:12.332Z,15.10
2023-04-19T02:12:41.677Z,15.08
2023-04-19T02:15:10.502Z,15.03
2023-04-19T02:17:38.954Z,15.00
2023-04-19T02:20:08.099Z,15.01
2023-04-19T02:22:36.340Z,15.00
2023-04-19T02:25:05.482Z,14.99
2023-04-19T02:27:33.667Z,14.96
2023-04-19T02:30:01.899Z,14.90
2023-04-19T02:32:31.376Z,14.87
2023-04-19T02:34:59.823Z,14.85
2023-04-19T02:37:28.661Z,14.84
2023-04-19T02:39:56.730Z,14.75
2023-04-19T02:42:24.943Z,14.72
2023-04-19T02:44:53.182Z,14.70
2023-04-19T02:47:26.636Z,14.67
2023-04-19T02:49:55.591Z,14.65
2023-04-19T02:52:23.773Z,14.63
2023-04-19T02:54:52.400Z,14.59
2023-04-19T02:57:20.507Z,14.57
2023-04-19T02:59:49.312Z,14.55
2023-04-19T03:02:18.841Z,14.54
2023-04-19T03:04:48.913Z,14.52
2023-04-19T03:07:16.974Z,14.50
2023-04-19T03:09:45.504Z,14.49
2023-04-19T03:12:13.634Z,14.48
2023-04-19T03:14:41.827Z,14.45
2023-04-19T03:17:10.150Z,14.42
2023-04-19T03:19:38.319Z,14.39
2023-04-19T03:22:06.649Z,14.36
2023-04-19T03:24:37.795Z,14.34
2023-04-19T03:27:06.845Z,14.32
2023-04-19T03:29:35.572Z,14.29
2023-04-19T03:32:03.960Z,14.27
2023-04-19T03:34:32.133Z,14.27
2023-04-19T03:37:01.234Z,14.27
2023-04-19T03:39:29.595Z,14.25
2023-04-19T03:41:57.652Z,14.22
2023-04-19T03:44:25.934Z,14.19
2023-04-19T03:46:54.117Z,14.18
2023-04-19T03:49:22.782Z,14.17
2023-04-19T03:51:51.965Z,14.13
2023-04-19T03:54:20.503Z,14.11
2023-04-19T03:56:48.705Z,14.09
2023-04-19T03:59:17.027Z,14.07
2023-04-19T04:01:46.674Z,14.04
2023-04-19T04:04:15.474Z,14.02
2023-04-19T04:06:44.498Z,14.01
2023-04-19T04:09:12.855Z,13.99
2023-04-19T04:11:41.285Z,13.94
2023-04-19T04:14:09.469Z,13.92
2023-04-19T04:16:38.211Z,13.90
2023-04-19T04:19:07.412Z,13.88
2023-04-19T04:21:35.611Z,13.85
2023-04-19T04:24:04.187Z,13.83
2023-04-19T04:26:32.717Z,13.80
2023-04-19T04:29:01.543Z,13.78
2023-04-19T04:31:29.880Z,13.76
2023-04-19T04:33:58.679Z,13.75
2023-04-19T04:36:27.485Z,13.75
2023-04-19T04:38:56.232Z,13.74
2023-04-19T04:41:24.240Z,13.72
2023-04-19T04:44:08.304Z,13.71
2023-04-19T04:46:39.394Z,13.70
2023-04-19T04:49:07.534Z,13.69
2023-04-19T04:51:36.271Z,13.68
2023-04-19T04:54:04.734Z,13.66
2023-04-19T04:56:32.944Z,13.63
2023-04-19T04:59:01.152Z,13.62
2023-04-19T05:01:30.902Z,13.62
2023-04-19T05:04:00.583Z,13.62
2023-04-19T05:06:28.869Z,13.59
2023-04-19T05:08:57.416Z,13.55
2023-04-19T05:11:27.615Z,13.52
2023-04-19T05:13:55.804Z,13.51
2023-04-19T05:16:24.302Z,13.48
2023-04-19T05:18:52.563Z,13.46
2023-04-19T05:21:20.745Z,13.46
2023-04-19T05:23:49.717Z,13.46
2023-04-19T05:26:17.925Z,13.43
2023-04-19T05:28:46.644Z,13.41
2023-04-19T05:31:15.289Z,13.40
2023-04-19T05:33:44.086Z,13.39
2023-04-19T05:36:12.238Z,13.40
2023-04-19T05:38:40.551Z,13.40
2023-04-19T05:41:08.869Z,13.41
2023-04-19T05:43:37.053Z,13.41
2023-04-19T05:46:06.049Z,13.42
2023-04-19T05:48:34.312Z,13.44
2023-04-19T05:51:03.613Z,13.47
2023-04-19T05:53:31.740Z,13.47
2023-04-19T05:55:59.867Z,13.49
2023-04-19T05:58:28.023Z,13.50
2023-04-19T06:00:57.650Z,13.50
2023-04-19T06:03:28.737Z,13.51
2023-04-19T06:06:00.466Z,13.51
2023-04-19T06:08:29.379Z,13.54
2023-04-19T06:11:02.119Z,13.58
2023-04-19T06:13:33.541Z,13.61
2023-04-19T06:16:02.925Z,13.65
2023-04-19T06:18:31.448Z,13.68
2023-04-19T06:21:00.224Z,13.74
2023-04-19T06:23:28.442Z,13.79
2023-04-19T06:25:57.112Z,13.85
2023-04-19T06:28:25.350Z,13.96
2023-04-19T06:30:53.588Z,14.33
2023-04-19T06:33:22.103Z,14.69
2023-04-19T06:35:50.399Z,14.78
2023-04-19T06:38:19.190Z,14.83
2023-04-19T06:40:47.544Z,14.84
2023-04-19T06:43:15.849Z,14.88
2023-04-19T06:45:44.457Z,14.95
2023-04-19T06:48:12.830Z,15.04
2023-04-19T06:50:41.522Z,15.15
2023-04-19T06:53:09.958Z,15.25
2023-04-19T06:55:38.891Z,15.36
2023-04-19T06:58:07.321Z,15.49
2023-04-19T07:00:35.684Z,15.63
2023-04-19T07:03:05.340Z,15.80
2023-04-19T07:05:34.076Z,15.96
2023-04-19T07:08:02.227Z,16.13
2023-04-19T07:10:30.397Z,16.30
2023-04-19T07:12:58.591Z,16.46
2023-04-19T07:15:27.995Z,16.65
2023-04-19T07:17:56.823Z,16.85
2023-04-19T07:20:26.367Z,17.04
2023-04-19T07:22:55.147Z,17.24
2023-04-19T07:25:24.529Z,17.47
2023-04-19T07:27:54.434Z,17.67
2023-04-19T07:30:23.240Z,17.90
2023-04-19T07:32:51.957Z,18.11
2023-04-19T07:35:20.913Z,18.34
2023-04-19T07:37:49.745Z,18.55
2023-04-19T07:40:18.789Z,18.80
2023-04-19T07:42:46.948Z,19.03
2023-04-19T07:45:15.906Z,19.22
2023-04-19T07:47:45.406Z,19.47
2023-04-19T07:50:14.110Z,19.71
2023-04-19T07:52:42.510Z,19.94
2023-04-19T07:55:11.685Z,20.12
2023-04-19T07:57:41.862Z,20.30
2023-04-19T08:00:10.800Z,20.47
2023-04-19T08:02:39.689Z,20.66
2023-04-19T08:05:08.958Z,20.76
2023-04-19T08:07:38.397Z,20.71
2023-04-19T08:10:09.346Z,20.69
2023-04-19T08:12:45.262Z,20.73
2023-04-19T08:15:52.514Z,20.71
2023-04-19T08:18:08.139Z,20.71
2023-04-19T08:20:37.373Z,20.74
2023-04-19T08:23:17.714Z,20.72
2023-04-19T08:25:51.518Z,20.76
2023-04-19T08:28:21.362Z,20.85
2023-04-19T08:30:51.067Z,20.93
2023-04-19T08:33:19.837Z,21.08
2023-04-19T08:35:48.215Z,21.14
2023-04-19T08:38:16.890Z,21.14
2023-04-19T08:40:53.840Z,21.18
2023-04-19T08:43:24.786Z,21.26
2023-04-19T08:45:55.280Z,21.35
2023-04-19T08:48:24.561Z,21.53
2023-04-19T08:51:04.526Z,21.62
2023-04-19T08:53:35.042Z,21.64
2023-04-19T08:56:17.381Z,21.77
2023-04-19T08:59:07.503Z,21.78
2023-04-19T09:01:44.518Z,21.83
2023-04-19T09:06:44.671Z,21.78
2023-04-19T09:09:34.177Z,21.80
2023-04-19T09:12:18.556Z,21.94
2023-04-19T09:15:00.706Z,22.05
2023-04-19T09:17:32.471Z,21.99
2023-04-19T09:20:01.042Z,21.99
2023-04-19T09:22:29.776Z,21.84
2023-04-19T09:27:35.433Z,21.77
2023-04-19T09:30:10.805Z,21.68
2023-04-19T09:32:48.795Z,21.60
2023-04-19T09:35:17.782Z,21.57
2023-04-19T09:40:33.101Z,21.58
2023-04-19T09:45:45.375Z,21.48
2023-04-19T09:48:15.047Z,21.47
2023-04-19T09:51:05.941Z,21.45
2023-04-19T09:53:40.864Z,21.45
2023-04-19T09:56:11.868Z,21.41
2023-04-19T09:58:50.075Z,21.46
2023-04-19T10:01:25.110Z,21.62
2023-04-19T10:03:54.457Z,21.70
2023-04-19T10:08:56.232Z,21.92
2023-04-19T10:11:27.294Z,21.91
2023-04-19T10:14:00.232Z,21.88
2023-04-19T10:16:30.984Z,21.81
2023-04-19T10:19:03.760Z,21.87
2023-04-19T10:21:32.907Z,22.03
2023-04-19T10:24:02.220Z,22.15
2023-04-19T10:26:30.990Z,22.18
2023-04-19T10:28:59.454Z,22.34
2023-04-19T10:31:27.811Z,22.38
2023-04-19T10:33:56.235Z,22.42
2023-04-19T10:36:28.340Z,22.51
2023-04-19T10:38:56.610Z,22.42
2023-04-19T10:41:57.563Z,22.56
2023-04-19T10:44:26.198Z,22.76
2023-04-19T10:46:54.481Z,22.68
2023-04-19T10:49:24.638Z,22.63
2023-04-19T10:51:52.879Z,22.60
2023-04-19T10:54:33.035Z,22.70
2023-04-19T10:57:01.268Z,22.79
2023-04-19T10:59:31.563Z,22.83
2023-04-19T11:02:02.567Z,22.85
2023-04-19T11:04:40.021Z,22.76
2023-04-19T11:07:08.769Z,22.63
2023-04-19T11:09:39.263Z,22.55
2023-04-19T11:12:13.805Z,22.31
2023-04-19T11:14:51.555Z,22.29
2023-04-19T11:17:21.497Z,22.38
2023-04-19T11:20:01.646Z,22.55
2023-04-19T11:22:34.332Z,22.67
2023-04-19T11:25:07.116Z,22.77
2023-04-19T11:27:35.506Z,22.99
2023-04-19T11:30:07.646Z,22.76
2023-04-19T11:32:36.982Z,22.52
2023-04-19T11:35:09.150Z,22.47
2023-04-19T11:37:40.593Z,22.51
2023-04-19T11:40:09.401Z,22.51
2023-04-19T11:42:37.617Z,22.49
2023-04-19T11:45:13.232Z,22.50
2023-04-19T11:47:51.928Z,22.52
2023-04-19T11:50:58.543Z,22.59
2023-04-19T11:53:28.079Z,22.74
2023-04-19T11:55:57.374Z,22.78
2023-04-19T11:58:27.889Z,22.85
2023-04-19T12:00:57.902Z,22.90
2023-04-19T12:03:27.014Z,22.83
2023-04-19T12:05:58.778Z,22.68
2023-04-19T12:08:32.231Z,22.57
2023-04-19T12:11:03.574Z,22.48
2023-04-19T12:13:33.427Z,22.58
2023-04-19T12:16:01.756Z,22.74
2023-04-19T12:18:47.115Z,22.81
2023-04-19T12:21:33.142Z,22.91
2023-04-19T12:24:02.844Z,23.03
2023-04-19T12:26:32.366Z,23.12
2023-04-19T12:29:02.810Z,23.35
2023-04-19T12:31:31.922Z,23.36
2023-04-19T12:34:00.317Z,23.29
2023-04-19T12:36:28.796Z,23.28
2023-04-19T12:38:57.044Z,23.20
2023-04-19T12:41:25.272Z,23.15
2023-04-19T12:43:53.883Z,22.93
2023-04-19T12:46:22.194Z,22.89
2023-04-19T12:48:50.703Z,22.83
2023-04-19T12:51:19.612Z,22.48
2023-04-19T12:53:49.395Z,22.18
2023-04-19T12:56:18.252Z,22.11
2023-04-19T12:58:46.587Z,21.99
2023-04-19T13:01:17.729Z,21.90
2023-04-19T13:03:46.190Z,21.83
2023-04-19T13:06:14.726Z,21.70
2023-04-19T13:08:46.557Z,21.43
2023-04-19T13:11:16.951Z,21.10
2023-04-19T13:13:45.416Z,20.89
2023-04-19T13:16:13.868Z,20.64
2023-04-19T13:18:42.376Z,20.56
2023-04-19T13:21:10.535Z,20.71
2023-04-19T13:23:38.761Z,20.91
2023-04-19T13:26:07.315Z,21.08
2023-04-19T13:28:35.669Z,21.22
2023-04-19T13:31:06.048Z,21.41
2023-04-19T13:33:34.581Z,21.60
2023-04-19T13:36:03.037Z,21.59
2023-04-19T13:38:31.772Z,21.58
2023-04-19T13:41:03.964Z,21.49
2023-04-19T13:43:32.724Z,21.35
2023-04-19T13:46:01.055Z,21.31
2023-04-19T13:48:29.936Z,21.22
2023-04-19T13:50:59.802Z,21.26
2023-04-19T13:53:28.638Z,21.32
2023-04-19T13:55:57.290Z,21.15
2023-04-19T13:58:25.638Z,20.97
2023-04-19T14:00:54.557Z,20.95
2023-04-19T14:03:24.687Z,21.01
2023-04-19T14:05:53.221Z,21.00
2023-04-19T14:08:21.472Z,20.98
2023-04-19T14:10:51.459Z,20.99
2023-04-19T14:13:19.797Z,20.98
2023-04-19T14:15:48.140Z,20.96
2023-04-19T14:18:16.399Z,20.87
2023-04-19T14:20:44.809Z,20.94
2023-04-19T14:23:13.178Z,21.01
2023-04-19T14:25:41.461Z,20.89
2023-04-19T14:28:10.332Z,20.78
2023-04-19T14:30:39.363Z,20.71
2023-04-19T14:33:08.000Z,20.53
2023-04-19T14:35:36.487Z,20.49
2023-04-19T14:38:05.168Z,20.46
2023-04-19T14:40:34.006Z,20.37
2023-04-19T14:43:02.315Z,20.36
2023-04-19T14:45:30.562Z,20.31
2023-04-19T14:47:59.045Z,20.24
2023-04-19T14:50:27.309Z,20.17
2023-04-19T14:52:55.611Z,20.18
2023-04-19T14:55:25.708Z,20.16
2023-04-19T14:57:53.850Z,20.18
2023-04-19T15:00:23.434Z,20.26
2023-04-19T15:02:51.921Z,20.29
2023-04-19T15:05:23.408Z,20.28
2023-04-19T15:07:51.996Z,20.26
2023-04-19T15:10:20.092Z,20.21
2023-04-19T15:12:48.304Z,20.16
2023-04-19T15:15:16.919Z,20.11
2023-04-19T15:17:45.220Z,20.08
2023-04-19T15:20:13.777Z,19.98
2023-04-19T15:22:42.238Z,19.86
2023-04-19T15:25:13.391Z,19.77
2023-04-19T15:27:41.566Z,19.72
2023-04-19T15:30:10.745Z,19.66
2023-04-19T15:32:39.221Z,19.56
2023-04-19T15:35:08.102Z,19.57
2023-04-19T15:37:37.370Z,19.51
2023-04-19T15:40:06.369Z,19.48
2023-04-19T15:42:35.233Z,19.47
2023-04-19T15:45:04.722Z,19.49
2023-04-19T15:47:34.591Z,19.50
2023-04-19T15:50:02.897Z,19.44
2023-04-19T15:52:31.129Z,19.43
2023-04-19T15:54:59.357Z,19.42
2023-04-19T15:57:27.747Z,19.39
2023-04-19T15:59:55.933Z,19.40
2023-04-19T16:02:24.190Z,19.38
2023-04-19T16:04:52.771Z,19.31
2023-04-19T16:07:22.036Z,19.22
2023-04-19T16:09:50.438Z,19.15
2023-04-19T16:12:18.653Z,19.13
2023-04-19T16:14:47.466Z,19.12
2023-04-19T16:17:15.722Z,19.14
2023-04-19T16:19:44.024Z,19.16
2023-04-19T16:22:12.713Z,19.12
2023-04-19T16:24:41.277Z,19.20
2023-04-19T16:27:09.452Z,19.25
2023-04-19T16:29:37.632Z,19.13
2023-04-19T16:32:06.628Z,19.00
2023-04-19T16:34:35.092Z,18.97
2023-04-19T16:37:03.936Z,18.88
2023-04-19T16:39:32.402Z,18.79
2023-04-19T16:42:00.674Z,18.78
2023-04-19T16:44:29.403Z,18.76
2023-04-19T16:46:57.636Z,18.79
2023-04-19T16:49:26.025Z,18.74
2023-04-19T16:51:54.727Z,18.64
2023-04-19T16:54:23.205Z,18.60
2023-04-19T16:56:51.521Z,18.60
2023-04-19T16:59:19.833Z,18.58
2023-04-19T17:01:50.664Z,18.53
2023-04-19T17:04:18.882Z,18.57
2023-04-19T17:06:47.305Z,18.61
2023-04-19T17:09:15.534Z,18.62
2023-04-19T17:11:44.141Z,18.67
2023-04-19T17:14:12.598Z,18.71
2023-04-19T17:16:40.763Z,18.67
2023-04-19T17:19:08.897Z,18.68
2023-04-19T17:21:40.620Z,18.70
2023-04-19T17:24:09.104Z,18.68
2023-04-19T17:26:39.067Z,18.66
2023-04-19T17:29:09.724Z,18.63
2023-04-19T17:31:38.832Z,18.58
2023-04-19T17:34:08.481Z,18.52
2023-04-19T17:36:38.606Z,18.43
2023-04-19T17:39:08.427Z,18.34
2023-04-19T17:41:37.731Z,18.26
2023-04-19T17:44:06.875Z,18.21
2023-04-19T17:46:35.098Z,18.15
2023-04-19T17:49:03.383Z,18.09
2023-04-19T17:51:32.408Z,18.03
2023-04-19T17:54:00.583Z,18.03
2023-04-19T17:56:28.874Z,18.02
2023-04-19T17:58:57.889Z,18.00
2023-04-19T18:01:27.448Z,17.96
2023-04-19T18:03:56.705Z,17.94
2023-04-19T18:06:25.286Z,17.90
2023-04-19T18:08:53.888Z,17.87
2023-04-19T18:11:22.043Z,17.82
2023-04-19T18:13:51.866Z,17.81
2023-04-19T18:16:21.857Z,17.81
2023-04-19T18:18:54.297Z,17.79
2023-04-19T18:21:23.801Z,17.77
2023-04-19T18:23:53.709Z,17.76
2023-04-19T18:26:25.371Z,17.76
2023-04-19T18:28:54.856Z,17.75
2023-04-19T18:31:25.694Z,17.73
2023-04-19T18:34:00.482Z,17.74
2023-04-19T18:36:30.162Z,17.74
2023-04-19T18:39:00.770Z,17.70
2023-04-19T18:41:30.028Z,17.68
2023-04-19T18:44:30.012Z,17.63
2023-04-19T18:46:52.770Z,17.61
2023-04-19T18:49:25.283Z,17.60
2023-04-19T18:51:54.596Z,17.58
2023-04-19T18:54:23.642Z,17.55
2023-04-19T18:59:29.968Z,17.49
2023-04-19T19:02:00.432Z,17.47
2023-04-19T19:04:46.815Z,17.47
2023-04-19T19:07:34.969Z,17.47
2023-04-19T19:12:42.160Z,17.42
2023-04-19T19:15:15.031Z,17.40
2023-04-19T19:17:48.828Z,17.42
2023-04-19T19:20:24.303Z,17.42
2023-04-19T19:22:55.385Z,17.43
2023-04-19T19:25:26.830Z,17.45
2023-04-19T19:28:07.537Z,17.45
2023-04-19T19:30:39.498Z,17.46
2023-04-19T19:33:12.098Z,17.47
2023-04-19T19:35:41.925Z,17.48
2023-04-19T19:38:11.837Z,17.51
2023-04-19T19:43:20.264Z,17.52
2023-04-19T19:45:50.448Z,17.51
2023-04-19T19:48:18.650Z,17.50
2023-04-19T19:51:17.195Z,17.51
2023-04-19T19:53:35.261Z,17.53
2023-04-19T19:56:04.318Z,17.55
2023-04-19T19:58:49.720Z,17.58
2023-04-19T20:01:22.500Z,17.62
2023-04-19T20:03:56.539Z,17.65
2023-04-19T20:07:21.506Z,17.64
2023-04-19T20:09:13.501Z,17.64
2023-04-19T20:11:42.838Z,17.63
2023-04-19T20:14:13.086Z,17.65
2023-04-19T20:16:42.907Z,17.68
2023-04-19T20:19:12.380Z,17.71
2023-04-19T20:21:41.706Z,17.76
2023-04-19T20:24:13.966Z,17.78
2023-04-19T20:26:43.738Z,17.79
2023-04-19T20:29:13.721Z,17.82
2023-04-19T20:31:43.233Z,17.81
2023-04-19T20:34:11.515Z,17.79
2023-04-19T20:36:41.013Z,17.79
2023-04-19T20:39:10.765Z,17.81
2023-04-19T20:41:40.187Z,17.83
2023-04-19T20:44:10.164Z,17.86
2023-04-19T20:46:39.283Z,17.88
2023-04-19T20:49:08.934Z,17.90
2023-04-19T20:51:39.040Z,17.88
2023-04-19T20:54:08.336Z,17.88
2023-04-19T20:56:36.447Z,17.89
2023-04-19T20:59:04.754Z,17.91
2023-04-19T21:01:33.462Z,17.94
2023-04-19T21:04:01.933Z,17.96
2023-04-19T21:06:31.038Z,17.95
2023-04-19T21:08:59.283Z,17.93
2023-04-19T21:11:27.387Z,17.93
2023-04-19T21:13:56.058Z,17.94
2023-04-19T21:16:24.358Z,17.94
2023-04-19T21:18:53.074Z,17.94
2023-04-19T21:21:21.590Z,17.94
2023-04-19T21:23:49.890Z,17.94
2023-04-19T21:26:18.571Z,17.94
2023-04-19T21:28:47.172Z,17.95
2023-04-19T21:31:15.653Z,17.96
2023-04-19T21:33:45.219Z,17.97
2023-04-19T21:36:13.607Z,17.98
2023-04-19T21:38:41.767Z,17.99
2023-04-19T21:41:09.958Z,17.97
2023-04-19T21:43:38.698Z,17.95
2023-04-19T21:46:06.874Z,17.94
2023-04-19T21:48:35.205Z,17.93
2023-04-19T21:51:03.683Z,17.89
2023-04-19T21:53:31.824Z,17.84
2023-04-19T21:56:00.054Z,17.82
2023-04-19T21:58:28.358Z,17.80
2023-04-19T22:00:56.575Z,17.78
2023-04-19T22:03:24.840Z,17.77
2023-04-19T22:05:53.181Z,17.75
2023-04-19T22:08:21.451Z,17.72
2023-04-19T22:10:49.592Z,17.70
2023-04-19T22:13:18.377Z,17.66
2023-04-19T22:15:46.688Z,17.64
2023-04-19T22:18:14.975Z,17.64
2023-04-19T22:20:43.316Z,17.61
2023-04-19T22:23:11.564Z,17.56
2023-04-19T22:25:39.746Z,17.53
2023-04-19T22:28:07.981Z,17.51
2023-04-19T22:30:36.184Z,17.50
2023-04-19T22:33:04.496Z,17.48
2023-04-19T22:35:33.616Z,17.48
2023-04-19T22:38:01.886Z,17.48
2023-04-19T22:40:30.153Z,17.48
2023-04-19T22:42:58.461Z,17.48
2023-04-19T22:45:26.755Z,17.49
2023-04-19T22:47:54.973Z,17.49
2023-04-19T22:50:23.359Z,17.48
2023-04-19T22:52:51.600Z,17.47
2023-04-19T22:55:19.927Z,17.46
2023-04-19T22:57:48.370Z,17.46
2023-04-19T23:00:17.037Z,17.45
2023-04-19T23:02:46.738Z,17.45
2023-04-19T23:05:15.457Z,17.43
2023-04-19T23:07:44.429Z,17.42
2023-04-19T23:10:12.768Z,17.42
2023-04-19T23:12:41.199Z,17.42
2023-04-19T23:15:11.517Z,17.42
2023-04-19T23:17:40.033Z,17.41
2023-04-19T23:20:09.734Z,17.42
2023-04-19T23:22:39.405Z,17.41
2023-04-19T23:25:08.582Z,17.41
2023-04-19T23:27:37.430Z,17.41
2023-04-19T23:30:07.166Z,17.40
2023-04-19T23:32:35.598Z,17.38
2023-04-19T23:35:04.994Z,17.37
2023-04-19T23:37:33.329Z,17.34
2023-04-19T23:40:01.492Z,17.32
2023-04-19T23:42:29.962Z,17.29
2023-04-19T23:44:58.864Z,17.28
2023-04-19T23:47:27.092Z,17.27
2023-04-19T23:49:55.297Z,17.26
2023-04-19T23:52:23.452Z,17.24
2023-04-19T23:54:52.314Z,17.23
2023-04-19T23:57:20.979Z,17.21
2023-04-19T23:59:49.946Z,17.18
